Time;durP1;ratioP1;P1;durP2;ratioP2;P2;SDS_P1;SDS_P2;PMS_P1;PMS_P2;Temp;Humidity;BMP_temperature;BMP_pressure;BME280_temperature;BME280_humidity;BME280_pressure;Samples;Min_cycle;Max_cycle;Signal;HPM_P1;HPM_P2
2024/02/29 00:01:29;;;;;;;14.60;9.63;;;4.90;99.90;;;;;;5020686;28;20198;-72
2024/02/29 00:03:54;;;;;;;17.47;8.90;;;4.90;99.90;;;;;;5003308;28;20207;-72
2024/02/29 00:06:20;;;;;;;14.83;9.67;;;4.90;99.90;;;;;;5021126;28;20268;-72
2024/02/29 00:08:46;;;;;;;16.73;10.83;;;4.80;99.90;;;;;;5002358;28;20195;-74
2024/02/29 00:11:12;;;;;;;13.53;9.47;;;4.80;99.90;;;;;;5019799;28;20442;-71
2024/02/29 00:13:37;;;;;;;17.80;8.97;;;4.80;99.90;;;;;;5019862;28;20217;-70
2024/02/29 00:16:03;;;;;;;17.67;10.83;;;4.70;99.90;;;;;;5020860;28;20210;-73
2024/02/29 00:18:29;;;;;;;13.10;8.57;;;4.70;99.90;;;;;;5009573;28;20227;-73
2024/02/29 00:20:54;;;;;;;14.67;9.37;;;4.70;99.90;;;;;;4982836;28;20163;-73
2024/02/29 00:23:20;;;;;;;19.27;9.80;;;4.70;99.90;;;;;;5017987;28;20205;-71
2024/02/29 00:25:45;;;;;;;11.07;8.53;;;4.60;99.90;;;;;;4968887;28;20436;-70
2024/02/29 00:28:11;;;;;;;14.47;8.77;;;4.60;99.90;;;;;;5016777;28;20660;-72
2024/02/29 00:30:36;;;;;;;14.87;9.17;;;4.60;99.90;;;;;;5018571;28;20222;-69
2024/02/29 00:33:03;;;;;;;13.67;8.83;;;4.60;99.90;;;;;;5016508;28;20198;-72
2024/02/29 00:35:31;;;;;;;18.10;10.07;;;4.50;99.90;;;;;;5014810;28;20199;-73
2024/02/29 00:37:57;;;;;;;17.17;9.77;;;4.50;99.90;;;;;;4990742;28;20462;-70
2024/02/29 00:40:23;;;;;;;15.40;8.40;;;4.50;99.90;;;;;;5017981;28;20418;-72
2024/02/29 00:42:50;;;;;;;15.33;8.73;;;4.50;99.90;;;;;;4996208;28;20813;-70
2024/02/29 00:45:15;;;;;;;13.53;7.63;;;4.40;99.90;;;;;;5018230;28;20223;-72
2024/02/29 00:47:41;;;;;;;17.87;10.30;;;4.40;99.90;;;;;;5019291;28;20873;-71
2024/02/29 00:50:07;;;;;;;16.93;9.60;;;4.40;99.90;;;;;;5017940;28;20207;-71
2024/02/29 00:52:32;;;;;;;17.47;10.17;;;4.40;99.90;;;;;;5014441;28;20273;-69
2024/02/29 00:55:00;;;;;;;15.80;10.17;;;4.40;99.90;;;;;;5014284;28;20426;-70
2024/02/29 00:57:26;;;;;;;16.27;9.87;;;4.40;99.90;;;;;;5014273;28;20276;-69
2024/02/29 00:59:51;;;;;;;15.90;10.90;;;4.40;99.90;;;;;;5014292;28;20505;-70
2024/02/29 01:02:17;;;;;;;16.73;9.50;;;4.40;99.90;;;;;;5014330;28;20198;-71
2024/02/29 01:04:42;;;;;;;21.00;11.80;;;4.40;99.90;;;;;;5009143;28;20612;-72
2024/02/29 01:07:08;;;;;;;17.80;9.80;;;4.40;99.90;;;;;;5014165;28;20214;-70
2024/02/29 01:09:34;;;;;;;16.23;9.07;;;4.30;99.90;;;;;;5014020;28;20629;-71
2024/02/29 01:11:59;;;;;;;15.50;10.10;;;4.30;99.90;;;;;;5014036;28;20264;-70
2024/02/29 01:14:26;;;;;;;18.57;10.40;;;4.30;99.90;;;;;;5014032;28;20575;-70
2024/02/29 01:16:53;;;;;;;16.83;10.70;;;4.30;99.90;;;;;;5014374;28;20224;-70
2024/02/29 01:19:19;;;;;;;18.10;12.17;;;4.30;99.90;;;;;;5011127;28;20461;-71
2024/02/29 01:21:45;;;;;;;18.30;10.97;;;4.30;99.90;;;;;;5009248;28;20418;-71
2024/02/29 01:24:10;;;;;;;20.60;10.43;;;4.30;99.90;;;;;;5015064;28;20224;-70
2024/02/29 01:26:36;;;;;;;16.53;10.20;;;4.30;99.90;;;;;;5014756;28;20253;-70
2024/02/29 01:29:02;;;;;;;17.27;9.93;;;4.30;99.90;;;;;;5014671;28;20290;-71
2024/02/29 01:31:28;;;;;;;15.10;9.40;;;4.30;99.90;;;;;;5014481;28;20441;-71
2024/02/29 01:33:54;;;;;;;16.30;9.27;;;4.20;99.90;;;;;;5012836;28;20282;-72
2024/02/29 01:36:19;;;;;;;18.10;10.90;;;4.20;99.90;;;;;;5013744;28;20795;-69
2024/02/29 01:38:45;;;;;;;14.93;9.17;;;4.10;99.90;;;;;;5014187;28;20206;-70
2024/02/29 01:41:12;;;;;;;17.70;10.17;;;4.10;99.90;;;;;;5014020;28;20289;-69
2024/02/29 01:43:38;;;;;;;14.57;9.23;;;4.10;99.90;;;;;;5013979;28;20420;-69
2024/02/29 01:46:09;;;;;;;16.10;9.47;;;4.10;99.90;;;;;;5013801;28;20438;-70
2024/02/29 01:48:35;;;;;;;15.27;9.87;;;4.00;99.90;;;;;;5008454;28;20258;-69
2024/02/29 01:51:01;;;;;;;18.87;11.17;;;4.00;99.90;;;;;;5009613;28;20493;-69
2024/02/29 01:53:27;;;;;;;16.60;11.07;;;4.00;99.90;;;;;;5009377;28;20226;-69
2024/02/29 01:55:53;;;;;;;14.60;9.73;;;4.00;99.90;;;;;;5013365;28;20481;-70
2024/02/29 01:58:19;;;;;;;17.93;10.37;;;4.00;99.90;;;;;;5013947;28;20222;-69
2024/02/29 02:00:45;;;;;;;23.17;11.97;;;4.00;99.90;;;;;;5019489;28;20172;-71
2024/02/29 02:03:10;;;;;;;20.80;12.60;;;4.00;99.90;;;;;;5016754;28;20701;-70
2024/02/29 02:05:36;;;;;;;17.60;11.00;;;3.90;99.90;;;;;;5010694;28;20226;-70
2024/02/29 02:08:03;;;;;;;19.20;11.87;;;3.90;99.90;;;;;;4993294;28;20259;-71
2024/02/29 02:10:29;;;;;;;20.40;11.53;;;3.90;99.90;;;;;;5018288;28;20573;-70
2024/02/29 02:12:55;;;;;;;24.77;13.30;;;3.90;99.90;;;;;;5019445;28;20549;-69
2024/02/29 02:15:20;;;;;;;19.27;10.77;;;3.90;99.90;;;;;;5017359;28;20482;-69
2024/02/29 02:17:49;;;;;;;17.17;10.27;;;3.90;99.90;;;;;;5017150;28;20555;-70
2024/02/29 02:20:18;;;;;;;18.17;10.20;;;3.80;99.90;;;;;;5011300;28;20434;-70
2024/02/29 02:22:44;;;;;;;14.03;8.60;;;3.80;99.90;;;;;;5016500;28;20463;-71
2024/02/29 02:25:10;;;;;;;19.90;11.43;;;3.80;99.90;;;;;;5017444;28;20916;-70
2024/02/29 02:27:39;;;;;;;18.13;10.70;;;3.80;99.90;;;;;;5017185;28;20233;-69
2024/02/29 02:30:06;;;;;;;17.43;10.63;;;3.70;99.90;;;;;;5017165;28;20418;-70
2024/02/29 02:32:36;;;;;;;20.70;11.30;;;3.70;99.90;;;;;;5017170;28;20832;-71
2024/02/29 02:35:05;;;;;;;19.70;10.63;;;3.80;99.90;;;;;;5009894;28;20797;-69
2024/02/29 02:37:31;;;;;;;21.97;11.27;;;3.80;99.90;;;;;;5016424;28;20708;-70
2024/02/29 02:39:57;;;;;;;23.00;12.17;;;3.80;99.90;;;;;;4999741;28;20512;-71
2024/02/29 02:42:24;;;;;;;21.40;11.13;;;3.80;99.90;;;;;;4982967;28;20542;-70
2024/02/29 02:44:50;;;;;;;20.40;11.37;;;3.70;99.90;;;;;;5015129;28;20183;-70
2024/02/29 02:47:15;;;;;;;20.17;12.60;;;3.80;99.90;;;;;;5016732;28;20477;-70
2024/02/29 02:49:41;;;;;;;19.40;11.90;;;3.80;99.90;;;;;;5014407;28;20224;-68
2024/02/29 02:52:07;;;;;;;20.57;10.77;;;3.80;99.90;;;;;;5017023;28;20227;-70
2024/02/29 02:54:33;;;;;;;20.47;13.03;;;3.70;99.90;;;;;;4996631;28;20473;-73
2024/02/29 02:56:59;;;;;;;19.13;11.00;;;3.70;99.90;;;;;;5016485;28;20442;-70
2024/02/29 02:59:25;;;;;;;19.20;10.63;;;3.70;99.90;;;;;;5016682;28;20223;-71
2024/02/29 03:01:50;;;;;;;24.13;12.17;;;3.60;99.90;;;;;;5016804;28;20191;-69
2024/02/29 03:04:16;;;;;;;21.63;12.23;;;3.60;99.90;;;;;;5011055;28;20183;-70
2024/02/29 03:06:42;;;;;;;19.30;11.20;;;3.60;99.90;;;;;;5016430;28;20714;-70
2024/02/29 03:09:07;;;;;;;22.17;11.87;;;3.60;99.90;;;;;;5016063;28;20512;-69
2024/02/29 03:11:34;;;;;;;21.37;11.30;;;3.60;99.90;;;;;;5014631;28;20198;-70
2024/02/29 03:14:00;;;;;;;20.10;11.17;;;3.60;99.90;;;;;;5016305;28;20199;-70
2024/02/29 03:16:26;;;;;;;20.20;12.23;;;3.60;99.90;;;;;;4988961;28;20450;-71
2024/02/29 03:18:52;;;;;;;21.63;11.77;;;3.60;99.90;;;;;;5011630;28;20469;-70
2024/02/29 03:21:18;;;;;;;25.80;14.20;;;3.50;99.90;;;;;;5014807;28;20418;-68
2024/02/29 03:23:43;;;;;;;21.80;12.40;;;3.60;99.90;;;;;;5016200;28;20179;-68
2024/02/29 03:26:09;;;;;;;22.70;11.53;;;3.60;99.90;;;;;;4985275;28;20294;-68
2024/02/29 03:28:35;;;;;;;20.97;11.03;;;3.60;99.90;;;;;;5014927;28;20191;-69
2024/02/29 03:31:00;;;;;;;23.10;13.00;;;3.60;99.90;;;;;;5015535;28;20283;-69
2024/02/29 03:33:26;;;;;;;22.50;13.00;;;3.60;99.90;;;;;;5012193;28;20207;-69
2024/02/29 03:35:52;;;;;;;21.00;11.83;;;3.60;99.90;;;;;;5015659;28;20206;-69
2024/02/29 03:38:18;;;;;;;24.40;12.67;;;3.60;99.90;;;;;;4988030;28;20223;-70
2024/02/29 03:40:46;;;;;;;20.80;11.97;;;3.60;99.90;;;;;;5015193;28;20186;-70
2024/02/29 03:43:12;;;;;;;16.93;10.77;;;3.60;99.90;;;;;;5015367;28;20453;-70
2024/02/29 03:45:37;;;;;;;20.93;11.97;;;3.60;99.90;;;;;;5015898;28;20987;-71
2024/02/29 03:48:03;;;;;;;21.60;11.80;;;3.60;99.90;;;;;;5013679;28;20203;-69
2024/02/29 03:50:29;;;;;;;19.83;11.70;;;3.60;99.90;;;;;;5013200;28;20227;-69
2024/02/29 03:52:54;;;;;;;18.27;10.93;;;3.60;99.90;;;;;;5008814;28;20206;-69
2024/02/29 03:55:20;;;;;;;20.23;11.50;;;3.50;99.90;;;;;;5015491;28;20199;-71
2024/02/29 03:57:45;;;;;;;21.47;11.97;;;3.50;99.90;;;;;;5014904;28;20468;-70
2024/02/29 04:00:12;;;;;;;20.17;10.93;;;3.50;99.90;;;;;;5015060;28;20195;-69
2024/02/29 04:02:38;;;;;;;18.40;11.30;;;3.50;99.90;;;;;;5015473;28;20190;-69
2024/02/29 04:05:06;;;;;;;22.30;13.33;;;3.50;99.90;;;;;;5012627;28;21043;-70
2024/02/29 04:07:31;;;;;;;18.83;11.33;;;3.40;99.90;;;;;;5014638;28;20434;-70
2024/02/29 04:09:57;;;;;;;19.63;11.07;;;3.40;99.90;;;;;;5015412;28;20864;-71
2024/02/29 04:12:22;;;;;;;23.57;12.07;;;3.40;99.90;;;;;;5014643;28;20534;-68
2024/02/29 04:14:48;;;;;;;18.77;11.50;;;3.40;99.90;;;;;;4990205;28;20199;-70
2024/02/29 04:17:14;;;;;;;22.00;12.60;;;3.40;99.90;;;;;;5015166;28;20218;-70
2024/02/29 04:19:41;;;;;;;22.73;11.00;;;3.40;99.90;;;;;;5014140;28;20187;-69
2024/02/29 04:22:07;;;;;;;22.00;12.47;;;3.40;99.90;;;;;;5010003;28;20492;-68
2024/02/29 04:24:32;;;;;;;26.03;12.90;;;3.40;99.90;;;;;;5015262;28;20429;-69
2024/02/29 04:26:58;;;;;;;20.83;12.00;;;3.40;99.90;;;;;;5015200;28;20281;-70
2024/02/29 04:29:23;;;;;;;26.83;14.83;;;3.50;99.90;;;;;;5014876;28;20306;-69
2024/02/29 04:31:49;;;;;;;28.00;13.70;;;3.50;99.90;;;;;;5000840;28;20187;-69
2024/02/29 04:34:15;;;;;;;23.47;13.07;;;3.50;99.90;;;;;;5005253;28;20258;-69
2024/02/29 04:36:40;;;;;;;22.17;13.33;;;3.50;99.90;;;;;;4989749;28;20207;-70
2024/02/29 04:39:06;;;;;;;26.40;13.67;;;3.50;99.90;;;;;;5014471;28;20210;-69
2024/02/29 04:41:31;;;;;;;21.20;12.87;;;3.50;99.90;;;;;;5014436;28;20326;-70
2024/02/29 04:43:57;;;;;;;31.23;14.77;;;3.50;99.90;;;;;;5014053;28;20207;-72
2024/02/29 04:46:23;;;;;;;24.97;15.07;;;3.50;99.90;;;;;;5015062;28;20222;-71
2024/02/29 04:48:48;;;;;;;23.03;13.20;;;3.50;99.90;;;;;;5007779;28;20598;-70
2024/02/29 04:51:14;;;;;;;29.63;13.33;;;3.40;99.90;;;;;;5011509;28;20226;-68
2024/02/29 04:53:40;;;;;;;24.03;12.67;;;3.40;99.90;;;;;;5013494;28;20281;-70
2024/02/29 04:56:06;;;;;;;25.23;13.97;;;3.40;99.90;;;;;;5016517;28;20217;-70
2024/02/29 04:58:32;;;;;;;20.10;12.57;;;3.40;99.90;;;;;;5016940;28;20377;-70
2024/02/29 05:00:58;;;;;;;23.93;13.87;;;3.30;99.90;;;;;;5018593;28;20445;-68
2024/02/29 05:03:24;;;;;;;22.80;12.87;;;3.30;99.90;;;;;;5014856;28;20191;-69
2024/02/29 05:05:49;;;;;;;27.00;14.43;;;3.30;99.90;;;;;;5014427;28;20687;-70
2024/02/29 05:08:15;;;;;;;28.03;14.67;;;3.30;99.90;;;;;;5017793;28;20199;-70
2024/02/29 05:10:41;;;;;;;23.83;13.63;;;3.30;99.90;;;;;;5019278;28;20386;-70
2024/02/29 05:13:06;;;;;;;23.83;13.83;;;3.30;99.90;;;;;;5017026;28;20277;-71
2024/02/29 05:15:32;;;;;;;26.67;14.70;;;3.30;99.90;;;;;;5015248;28;20266;-70
2024/02/29 05:17:59;;;;;;;23.83;13.73;;;3.30;99.90;;;;;;5014644;28;20223;-71
2024/02/29 05:20:25;;;;;;;30.77;14.20;;;3.30;99.90;;;;;;5009067;28;20183;-70
2024/02/29 05:22:53;;;;;;;29.03;15.83;;;3.30;99.90;;;;;;5013432;28;20560;-68
2024/02/29 05:25:20;;;;;;;34.03;17.17;;;3.30;99.90;;;;;;5014065;28;20187;-71
2024/02/29 05:27:45;;;;;;;25.90;13.90;;;3.30;99.90;;;;;;5014057;28;20794;-69
2024/02/29 05:30:13;;;;;;;26.17;14.30;;;3.30;99.90;;;;;;5013297;28;20505;-70
2024/02/29 05:32:38;;;;;;;25.80;13.93;;;3.30;99.90;;;;;;5014862;28;20286;-70
2024/02/29 05:35:05;;;;;;;26.40;13.93;;;3.30;99.90;;;;;;5014158;28;20903;-70
2024/02/29 05:37:30;;;;;;;31.63;15.40;;;3.30;99.90;;;;;;5018263;28;20499;-69
2024/02/29 05:39:59;;;;;;;24.90;14.73;;;3.30;99.90;;;;;;5018347;28;20406;-70
2024/02/29 05:42:26;;;;;;;26.60;15.00;;;3.30;99.90;;;;;;4993661;28;20223;-70
2024/02/29 05:44:55;;;;;;;29.43;14.40;;;3.30;99.90;;;;;;5018530;28;20426;-70
2024/02/29 05:47:20;;;;;;;28.23;15.87;;;3.30;99.90;;;;;;4984684;28;20461;-70
2024/02/29 05:49:46;;;;;;;27.40;13.97;;;3.20;99.90;;;;;;5015487;28;20686;-71
2024/02/29 05:52:12;;;;;;;24.70;13.97;;;3.20;99.90;;;;;;5016591;28;20269;-70
2024/02/29 05:54:37;;;;;;;26.87;15.17;;;3.20;99.90;;;;;;4993991;28;20206;-69
2024/02/29 05:57:04;;;;;;;32.60;16.00;;;3.20;99.90;;;;;;5017617;28;20203;-71
2024/02/29 05:59:30;;;;;;;28.37;15.10;;;3.20;99.90;;;;;;5017857;28;20230;-71
2024/02/29 06:01:56;;;;;;;26.90;16.23;;;3.20;99.90;;;;;;5017620;28;20905;-70
2024/02/29 06:04:21;;;;;;;25.60;14.77;;;3.30;99.90;;;;;;5014038;28;20522;-71
2024/02/29 06:06:47;;;;;;;25.00;14.80;;;3.30;99.90;;;;;;5017958;28;20210;-69
2024/02/29 06:09:14;;;;;;;29.33;15.03;;;3.30;99.90;;;;;;5018318;28;20456;-70
2024/02/29 06:11:41;;;;;;;28.50;14.43;;;3.20;99.90;;;;;;5018074;28;20241;-70
2024/02/29 06:14:06;;;;;;;28.70;14.93;;;3.20;99.90;;;;;;5017633;28;20489;-70
2024/02/29 06:16:32;;;;;;;26.60;15.33;;;3.20;99.90;;;;;;5019428;28;20438;-72
2024/02/29 06:18:58;;;;;;;26.93;13.60;;;3.30;99.90;;;;;;5018780;28;20310;-72
2024/02/29 06:21:23;;;;;;;29.97;14.33;;;3.30;99.90;;;;;;5018940;28;20575;-70
2024/02/29 06:23:49;;;;;;;21.43;12.40;;;3.30;99.90;;;;;;5020931;28;20884;-73
2024/02/29 06:26:15;;;;;;;24.17;13.90;;;3.20;99.90;;;;;;5020503;28;20261;-71
2024/02/29 06:28:41;;;;;;;27.27;12.70;;;3.30;99.90;;;;;;5022501;28;20391;-71
2024/02/29 06:31:07;;;;;;;24.97;15.13;;;3.30;99.90;;;;;;5022879;28;20651;-73
2024/02/29 06:33:33;;;;;;;24.40;12.30;;;3.30;99.90;;;;;;5019193;28;20430;-73
2024/02/29 06:35:59;;;;;;;30.40;14.23;;;3.30;99.90;;;;;;5022484;28;20450;-71
2024/02/29 06:38:24;;;;;;;25.67;14.70;;;3.30;99.90;;;;;;5020973;28;20231;-73
2024/02/29 06:40:50;;;;;;;23.80;12.37;;;3.40;99.90;;;;;;5002347;28;20429;-73
2024/02/29 06:43:17;;;;;;;27.17;13.40;;;3.40;99.90;;;;;;5022256;28;20179;-71
2024/02/29 06:45:50;;;;;;;24.43;13.40;;;3.40;99.90;;;;;;5020802;28;20305;-71
2024/02/29 06:48:17;;;;;;;24.50;14.43;;;3.50;99.90;;;;;;5006566;28;20504;-74
2024/02/29 06:50:42;;;;;;;23.87;13.00;;;3.50;99.90;;;;;;4997613;28;20472;-73
2024/02/29 06:53:08;;;;;;;25.23;13.40;;;3.60;99.90;;;;;;5016916;28;20434;-73
2024/02/29 06:55:34;;;;;;;25.17;14.07;;;3.60;99.90;;;;;;5024704;28;20187;-72
2024/02/29 06:58:00;;;;;;;27.63;14.87;;;3.70;99.90;;;;;;5026348;28;20556;-72
2024/02/29 07:00:26;;;;;;;23.93;12.13;;;3.70;99.90;;;;;;5029222;28;20198;-72
2024/02/29 07:02:52;;;;;;;24.97;13.03;;;3.80;99.90;;;;;;5029066;28;20473;-74
2024/02/29 07:05:17;;;;;;;27.20;13.30;;;3.80;99.90;;;;;;4991257;28;20196;-74
2024/02/29 07:07:44;;;;;;;22.47;12.67;;;3.90;99.90;;;;;;5002159;28;20450;-72
2024/02/29 07:10:11;;;;;;;24.93;13.47;;;4.00;99.90;;;;;;4995206;28;20210;-72
2024/02/29 07:12:37;;;;;;;20.53;11.73;;;4.00;99.90;;;;;;5023540;28;20422;-73
2024/02/29 07:15:03;;;;;;;19.80;12.30;;;4.10;99.90;;;;;;5020433;28;20441;-71
2024/02/29 07:17:29;;;;;;;21.40;12.30;;;4.20;99.90;;;;;;5020668;28;20219;-72
2024/02/29 07:19:55;;;;;;;24.40;14.77;;;4.30;99.90;;;;;;4992017;28;20425;-72
2024/02/29 07:22:21;;;;;;;21.67;12.90;;;4.40;99.90;;;;;;4997340;28;20775;-72
2024/02/29 07:24:46;;;;;;;21.53;13.00;;;4.40;99.90;;;;;;5021084;28;20433;-71
2024/02/29 07:27:15;;;;;;;21.77;11.57;;;4.50;99.90;;;;;;5001430;28;20245;-73
2024/02/29 07:29:40;;;;;;;22.70;13.40;;;4.50;99.90;;;;;;4995393;28;20262;-72
2024/02/29 07:32:06;;;;;;;25.60;13.43;;;4.60;99.90;;;;;;5020311;28;20837;-73
2024/02/29 07:34:33;;;;;;;23.83;12.37;;;4.60;99.90;;;;;;5014728;28;20235;-72
2024/02/29 07:36:59;;;;;;;22.37;13.73;;;4.70;99.90;;;;;;5021183;28;20206;-72
2024/02/29 07:39:25;;;;;;;19.27;12.03;;;4.80;99.90;;;;;;5020289;28;20792;-73
2024/02/29 07:41:50;;;;;;;19.20;11.97;;;4.80;99.90;;;;;;5002626;28;20198;-72
2024/02/29 07:44:16;;;;;;;22.87;11.00;;;4.80;99.90;;;;;;5020776;28;20438;-72
2024/02/29 07:46:41;;;;;;;21.00;12.20;;;4.90;99.90;;;;;;5009530;28;20226;-72
2024/02/29 07:49:07;;;;;;;23.77;14.10;;;4.90;99.90;;;;;;5006116;28;20610;-72
2024/02/29 07:51:33;;;;;;;19.30;10.67;;;5.00;99.90;;;;;;5002660;28;20264;-73
2024/02/29 07:53:58;;;;;;;19.80;11.33;;;5.00;99.90;;;;;;5012438;28;20212;-71
2024/02/29 07:56:24;;;;;;;23.40;13.52;;;5.10;99.90;;;;;;5013658;28;20459;-73
2024/02/29 07:58:50;;;;;;;23.23;12.07;;;5.20;99.90;;;;;;5014570;28;20205;-72
2024/02/29 08:01:16;;;;;;;19.87;10.87;;;5.30;99.90;;;;;;5014107;28;20198;-71
2024/02/29 08:03:42;;;;;;;17.33;11.23;;;5.30;99.90;;;;;;5017227;28;20204;-74
2024/02/29 08:06:07;;;;;;;20.47;11.93;;;5.30;99.90;;;;;;4987016;28;20929;-72
2024/02/29 08:08:33;;;;;;;20.23;11.00;;;5.40;99.90;;;;;;5020163;28;20259;-72
2024/02/29 08:10:59;;;;;;;17.60;10.53;;;5.50;99.90;;;;;;5021216;28;20254;-71
2024/02/29 08:13:25;;;;;;;23.13;11.10;;;5.50;99.90;;;;;;5020788;28;20187;-73
2024/02/29 08:15:50;;;;;;;19.57;11.50;;;5.60;99.90;;;;;;4977308;28;20458;-74
2024/02/29 08:18:16;;;;;;;22.10;11.63;;;5.70;99.90;;;;;;4991758;28;20909;-73
2024/02/29 08:20:45;;;;;;;16.30;10.47;;;5.80;99.90;;;;;;5018452;28;20183;-73
2024/02/29 08:23:15;;;;;;;16.63;10.43;;;5.90;99.90;;;;;;4993355;28;20186;-73
2024/02/29 08:25:42;;;;;;;17.40;11.73;;;5.90;99.90;;;;;;4994323;28;20446;-71
2024/02/29 08:28:08;;;;;;;21.73;11.90;;;6.00;99.90;;;;;;5017638;28;20675;-72
2024/02/29 08:30:33;;;;;;;19.30;11.40;;;6.10;99.90;;;;;;4986581;28;20195;-72
2024/02/29 08:32:59;;;;;;;23.00;10.90;;;6.20;99.90;;;;;;5016845;28;20179;-74
2024/02/29 08:35:24;;;;;;;19.47;10.40;;;6.30;99.90;;;;;;5016944;28;20274;-73
2024/02/29 08:37:50;;;;;;;21.23;11.37;;;6.30;99.90;;;;;;5021474;28;20242;-73
2024/02/29 08:40:16;;;;;;;19.93;10.20;;;6.40;99.90;;;;;;5018306;28;20866;-72
2024/02/29 08:42:42;;;;;;;20.48;14.18;;;6.50;99.90;;;;;;5014502;28;20484;-71
2024/02/29 08:45:08;;;;;;;18.87;10.80;;;6.70;99.90;;;;;;5013774;28;20187;-73
2024/02/29 08:47:35;;;;;;;18.37;11.30;;;6.80;99.30;;;;;;5018144;28;20203;-74
2024/02/29 08:50:01;;;;;;;17.57;10.40;;;6.90;98.20;;;;;;5006085;28;20521;-72
2024/02/29 08:52:26;;;;;;;15.77;9.93;;;7.00;97.40;;;;;;5012968;28;20437;-71
2024/02/29 08:54:52;;;;;;;16.17;10.20;;;7.20;96.50;;;;;;5015354;28;20440;-71
2024/02/29 08:57:18;;;;;;;17.37;11.07;;;7.20;96.00;;;;;;5009314;28;20505;-73
2024/02/29 08:59:44;;;;;;;16.13;10.30;;;7.30;95.50;;;;;;5021088;28;20226;-72
2024/02/29 09:02:09;;;;;;;17.23;9.77;;;7.40;95.40;;;;;;5016943;28;20262;-71
2024/02/29 09:04:35;;;;;;;18.20;10.13;;;7.50;94.80;;;;;;4983200;28;20204;-74
2024/02/29 09:07:01;;;;;;;16.47;9.40;;;7.60;94.50;;;;;;4985208;28;20211;-73
2024/02/29 09:09:30;;;;;;;18.57;10.47;;;7.70;93.50;;;;;;5008553;28;20194;-73
2024/02/29 09:11:56;;;;;;;18.27;11.13;;;7.80;92.80;;;;;;4984962;28;20482;-73
2024/02/29 09:14:21;;;;;;;16.20;10.40;;;7.80;91.90;;;;;;4985593;28;20454;-73
2024/02/29 09:16:47;;;;;;;13.67;9.07;;;8.00;91.30;;;;;;5018913;28;20797;-71
2024/02/29 09:19:13;;;;;;;16.60;10.40;;;8.10;90.50;;;;;;4992197;28;20446;-73
2024/02/29 09:21:39;;;;;;;17.33;11.10;;;8.20;90.00;;;;;;5011499;28;20203;-73
2024/02/29 09:24:06;;;;;;;14.03;9.00;;;8.20;89.00;;;;;;4974974;28;20194;-73
2024/02/29 09:26:32;;;;;;;18.83;11.13;;;8.40;87.80;;;;;;5003759;28;20495;-71
2024/02/29 09:28:58;;;;;;;16.73;10.30;;;8.40;85.80;;;;;;5014522;28;20422;-74
2024/02/29 09:31:24;;;;;;;16.03;9.53;;;8.50;85.00;;;;;;5021483;28;20473;-72
2024/02/29 09:33:49;;;;;;;17.20;9.50;;;8.60;84.10;;;;;;5022789;28;20433;-73
2024/02/29 09:36:15;;;;;;;13.73;10.00;;;8.50;83.50;;;;;;4969399;28;20224;-71
2024/02/29 09:38:41;;;;;;;14.23;8.43;;;8.60;82.70;;;;;;4982289;28;20458;-73
2024/02/29 09:41:09;;;;;;;14.00;8.50;;;8.60;82.80;;;;;;4975498;28;20210;-73
2024/02/29 09:43:36;;;;;;;14.43;9.37;;;8.70;83.40;;;;;;4987551;28;20591;-72
2024/02/29 09:46:02;;;;;;;13.37;8.27;;;8.70;82.90;;;;;;4987070;28;20469;-74
2024/02/29 09:48:29;;;;;;;16.77;9.30;;;8.70;83.10;;;;;;5009081;28;20478;-73
2024/02/29 09:51:00;;;;;;;13.48;8.60;;;8.80;82.00;;;;;;4993114;28;20701;-71
2024/02/29 09:53:27;;;;;;;16.80;9.40;;;8.90;82.40;;;;;;4984253;28;20282;-74
2024/02/29 09:55:56;;;;;;;16.00;9.17;;;9.10;81.00;;;;;;5017237;28;20454;-73
2024/02/29 09:58:22;;;;;;;16.37;9.80;;;9.30;80.90;;;;;;5019255;28;20473;-73
2024/02/29 10:00:48;;;;;;;13.67;8.83;;;9.40;78.70;;;;;;5024053;28;20414;-72
2024/02/29 10:03:18;;;;;;;10.00;6.73;;;9.50;79.40;;;;;;4994802;28;20418;-72
2024/02/29 10:05:45;;;;;;;15.23;9.10;;;9.60;79.30;;;;;;5015980;28;20437;-74
2024/02/29 10:08:12;;;;;;;12.47;8.47;;;9.80;77.70;;;;;;4994284;28;20431;-74
2024/02/29 10:10:37;;;;;;;13.03;8.10;;;9.90;76.60;;;;;;4980973;28;20440;-73
2024/02/29 10:13:05;;;;;;;12.33;9.37;;;10.00;75.20;;;;;;5014093;28;20457;-74
2024/02/29 10:15:31;;;;;;;10.40;7.10;;;10.10;73.70;;;;;;5021197;28;20637;-74
2024/02/29 10:17:57;;;;;;;10.37;7.37;;;10.20;73.40;;;;;;4997049;28;20999;-72
2024/02/29 10:20:24;;;;;;;11.73;7.43;;;10.30;73.40;;;;;;4998909;28;20442;-75
2024/02/29 10:22:51;;;;;;;10.03;7.13;;;10.40;72.20;;;;;;5016202;28;20440;-74
2024/02/29 10:25:17;;;;;;;10.90;7.10;;;10.40;71.30;;;;;;4997877;28;20420;-74
2024/02/29 10:27:43;;;;;;;10.07;7.03;;;10.40;72.30;;;;;;5023705;28;20459;-73
2024/02/29 10:30:13;;;;;;;11.20;7.60;;;10.50;70.90;;;;;;5003366;28;20434;-75
2024/02/29 10:32:41;;;;;;;11.37;7.73;;;10.50;71.10;;;;;;5026045;28;20201;-74
2024/02/29 10:35:17;;;;;;;12.67;7.50;;;10.60;70.90;;;;;;4990979;28;20483;-74
2024/02/29 10:37:43;;;;;;;12.90;8.40;;;10.70;69.00;;;;;;4967957;28;20585;-72
2024/02/29 10:40:09;;;;;;;12.60;8.33;;;10.80;68.40;;;;;;4999260;28;20440;-75
2024/02/29 10:42:39;;;;;;;11.47;7.33;;;10.90;66.30;;;;;;4983780;28;20442;-74
2024/02/29 10:45:12;;;;;;;10.87;6.67;;;10.90;67.10;;;;;;4997194;28;20437;-73
2024/02/29 10:47:45;;;;;;;11.17;6.83;;;10.80;67.60;;;;;;5023355;28;20463;-72
2024/02/29 10:50:14;;;;;;;9.30;6.40;;;10.90;68.10;;;;;;5014782;28;20478;-75
2024/02/29 10:52:47;;;;;;;9.20;6.57;;;10.90;67.70;;;;;;5003256;28;20662;-74
2024/02/29 10:55:20;;;;;;;8.73;6.10;;;11.00;67.50;;;;;;5010490;28;20681;-72
2024/02/29 10:58:00;;;;;;;8.80;6.17;;;11.00;67.20;;;;;;5025594;28;20465;-73
2024/02/29 11:00:26;;;;;;;10.67;7.07;;;11.20;66.30;;;;;;4976937;28;20513;-73
2024/02/29 11:02:53;;;;;;;10.53;6.70;;;11.20;65.10;;;;;;5007829;28;20881;-73
2024/02/29 11:05:19;;;;;;;13.37;7.70;;;11.30;65.80;;;;;;5001989;28;20184;-74
2024/02/29 11:07:46;;;;;;;15.13;7.47;;;11.40;64.90;;;;;;5024594;28;20476;-74
2024/02/29 11:10:12;;;;;;;11.37;7.40;;;11.50;64.60;;;;;;5024564;28;20497;-73
2024/02/29 11:12:42;;;;;;;13.10;7.73;;;11.60;63.60;;;;;;5004555;28;20497;-73
2024/02/29 11:15:11;;;;;;;14.57;7.53;;;11.60;63.20;;;;;;5024731;28;20505;-72
2024/02/29 11:17:39;;;;;;;8.53;6.13;;;11.70;63.30;;;;;;5022817;28;20923;-73
2024/02/29 11:20:09;;;;;;;13.10;7.57;;;11.60;63.70;;;;;;5021322;28;20424;-73
2024/02/29 11:22:36;;;;;;;11.07;8.20;;;11.60;64.10;;;;;;4992403;28;20896;-73
2024/02/29 11:25:09;;;;;;;13.50;6.80;;;11.70;63.60;;;;;;4978651;28;20424;-74
2024/02/29 11:27:36;;;;;;;11.83;8.17;;;11.80;62.80;;;;;;5014293;28;20449;-74
2024/02/29 11:30:03;;;;;;;12.80;8.10;;;11.90;62.10;;;;;;5022019;28;20423;-73
2024/02/29 11:32:32;;;;;;;13.37;8.07;;;11.90;61.50;;;;;;5001185;28;20407;-77
2024/02/29 11:35:01;;;;;;;14.70;10.30;;;11.80;62.10;;;;;;5026969;28;20678;-74
2024/02/29 11:37:34;;;;;;;10.17;7.37;;;11.70;62.20;;;;;;5000555;28;20441;-75
2024/02/29 11:40:07;;;;;;;12.97;7.53;;;11.70;62.90;;;;;;5026972;28;20415;-76
2024/02/29 11:42:34;;;;;;;9.70;7.53;;;11.70;63.10;;;;;;5005021;28;20418;-75
2024/02/29 11:45:00;;;;;;;10.03;7.13;;;11.70;62.20;;;;;;5024573;28;20425;-73
2024/02/29 11:47:27;;;;;;;10.80;7.17;;;11.80;61.80;;;;;;4992637;28;20517;-76
2024/02/29 11:49:53;;;;;;;10.87;7.80;;;11.80;62.00;;;;;;5019504;28;20204;-74
2024/02/29 11:52:19;;;;;;;9.03;6.73;;;11.90;61.20;;;;;;5024183;28;20469;-75
2024/02/29 11:54:45;;;;;;;8.83;6.07;;;12.00;61.70;;;;;;5022467;28;20437;-74
2024/02/29 11:57:11;;;;;;;9.23;6.13;;;11.90;61.60;;;;;;5024685;28;20238;-76
2024/02/29 11:59:38;;;;;;;9.43;7.20;;;11.90;61.70;;;;;;5024694;28;20447;-73
2024/02/29 12:02:08;;;;;;;8.47;6.53;;;12.10;61.10;;;;;;4999870;28;20174;-74
2024/02/29 12:04:33;;;;;;;9.57;5.83;;;12.20;60.20;;;;;;5009553;28;20425;-75
2024/02/29 12:06:59;;;;;;;8.73;5.73;;;12.20;60.90;;;;;;5010812;28;20473;-73
2024/02/29 12:09:25;;;;;;;5.90;4.80;;;12.20;61.10;;;;;;5023126;28;20226;-75
2024/02/29 12:11:51;;;;;;;6.03;4.67;;;12.20;61.20;;;;;;5023697;28;20190;-72
2024/02/29 12:14:20;;;;;;;9.23;5.70;;;12.30;61.40;;;;;;5007070;28;20476;-72
2024/02/29 12:16:46;;;;;;;9.33;5.90;;;12.30;61.20;;;;;;5025913;28;20449;-73
2024/02/29 12:19:14;;;;;;;8.00;5.50;;;12.40;61.10;;;;;;5023950;28;20893;-74
2024/02/29 12:21:39;;;;;;;8.77;5.87;;;12.50;60.80;;;;;;5020678;28;20693;-74
2024/02/29 12:24:07;;;;;;;10.60;6.70;;;12.60;60.30;;;;;;5020840;28;20405;-73
2024/02/29 12:26:33;;;;;;;8.77;5.93;;;12.60;59.30;;;;;;5000033;28;20204;-76
2024/02/29 12:28:59;;;;;;;7.10;5.70;;;12.60;59.50;;;;;;4995530;28;20453;-75
2024/02/29 12:31:25;;;;;;;7.40;5.40;;;12.60;59.30;;;;;;5005661;28;20226;-75
2024/02/29 12:33:52;;;;;;;9.23;4.50;;;12.60;59.70;;;;;;5017228;28;20759;-75